Archival Weather

Heathrow

London, United Kingdom (EGLL)

Report from: Thursday, September 21, 2023 2:50 PM BST
Current time: Saturday, February 24, 2024 3:56 PM GMT

Current weather – Weather history – Daily summaries
Weather forecast

Temperature16.0°C (60.8°F)
Dew point12.0°C (53.6°F)
Winds 6 kts (3.1 m/s, 6.9 mph) Vrb
Winds variableWinds variable
Visibility6.2 mi. (10 km)
Altimeter29.38 in.Hg (995 mB)
Relative humidity77 %
Density altitude936 ft. (285 m)
Remarks Fully automated report
Corrected report
Flight conditions Visual Meteorological Conditions
Raw dataCOR EGLL 211350Z AUTO VRB06KT 9999 //////CB 16/12 Q0995 TEMPO 4000 SHRA
An error has occurred. This application may no longer respond until reloaded. Reload 🗙